Time;durP1;ratioP1;P1;durP2;ratioP2;P2;SDS_P1;SDS_P2;PMS_P1;PMS_P2;Temp;Humidity;BMP_temperature;BMP_pressure;BME280_temperature;BME280_humidity;BME280_pressure;Samples;Min_cycle;Max_cycle;Signal;HPM_P1;HPM_P2
2022/04/03 06:23:08;;;;;;;;;5.00;5.00;;;;;21.32;35.64;100740.20;110186;1264;23370;-55
2022/04/03 06:25:35;;;;;;;;;4.00;4.00;;;;;21.35;35.67;100739.51;110115;1264;20861;-53
2022/04/03 06:28:03;;;;;;;;;2.00;2.00;;;;;21.34;35.73;100737.92;110002;1265;18397;-56
2022/04/03 06:30:30;;;;;;;;;5.00;5.00;;;;;21.34;35.64;100738.21;110034;1265;18684;-54
2022/04/03 06:32:57;;;;;;;;;5.67;5.00;;;;;21.35;35.61;100735.31;110150;1264;25831;-55
2022/04/03 06:35:25;;;;;;;;;4.00;4.00;;;;;21.36;35.57;100736.54;110281;1264;18454;-53
2022/04/03 06:37:52;;;;;;;;;4.67;4.00;;;;;21.36;35.69;100735.63;110267;1264;18970;-55
2022/04/03 06:40:19;;;;;;;;;4.67;4.00;;;;;21.35;35.76;100740.97;110201;1264;20394;-52
2022/04/03 06:42:46;;;;;;;;;4.00;4.00;;;;;21.35;35.76;100742.39;110089;1265;18611;-55
2022/04/03 06:45:14;;;;;;;;;5.33;4.00;;;;;21.36;35.92;100747.81;110140;1265;18966;-52
2022/04/03 06:47:41;;;;;;;;;5.00;5.00;;;;;21.37;35.95;100742.42;110161;1265;19663;-55
2022/04/03 06:50:09;;;;;;;;;4.00;4.00;;;;;21.40;35.92;100745.85;110184;1265;18625;-58
2022/04/03 06:52:36;;;;;;;;;4.33;4.33;;;;;21.45;35.86;100749.29;110067;1265;19019;-55
2022/04/03 06:55:04;;;;;;;;;4.33;4.33;;;;;21.47;35.58;100747.91;110233;1264;19583;-55
2022/04/03 06:57:31;;;;;;;;;5.00;5.00;;;;;21.53;35.75;100749.41;110205;1265;19707;-54
2022/04/03 06:59:59;;;;;;;;;7.33;6.00;;;;;21.54;35.88;100746.87;110172;1264;18890;-53
2022/04/03 07:02:26;;;;;;;;;6.00;5.67;;;;;21.59;35.82;100747.89;110052;1265;19778;-54
2022/04/03 07:04:53;;;;;;;;;4.00;4.00;;;;;21.66;36.21;100743.17;110099;1265;18458;-55
2022/04/03 07:07:20;;;;;;;;;4.50;4.50;;;;;21.75;36.58;100744.22;110189;1264;23207;-54
2022/04/03 07:09:48;;;;;;;;;5.00;4.00;;;;;21.84;36.74;100740.96;110031;1265;19772;-54
2022/04/03 07:12:15;;;;;;;;;4.50;4.50;;;;;21.92;36.80;100741.06;110179;1265;18551;-55
2022/04/03 07:14:42;;;;;;;;;6.00;6.00;;;;;22.00;36.71;100745.73;110162;1264;18875;-54
2022/04/03 07:17:10;;;;;;;;;5.00;5.00;;;;;22.09;36.79;100747.38;110253;1264;19511;-53
2022/04/03 07:19:37;;;;;;;;;5.00;5.00;;;;;22.14;37.53;100746.58;110120;1264;18421;-53
2022/04/03 07:22:04;;;;;;;;;4.67;4.67;;;;;22.21;37.74;100748.05;110231;1264;19967;-53
2022/04/03 07:24:32;;;;;;;;;6.33;6.00;;;;;22.29;38.60;100746.23;110217;1265;19490;-59
2022/04/03 07:26:59;;;;;;;;;5.50;5.50;;;;;22.38;39.04;100745.30;110132;1266;18507;-55
2022/04/03 07:29:26;;;;;;;;;5.50;5.00;;;;;22.41;39.71;100746.47;110266;1264;18848;-54
2022/04/03 07:31:54;;;;;;;;;6.00;6.00;;;;;22.42;39.89;100746.63;110195;1264;22287;-52
2022/04/03 07:34:21;;;;;;;;;5.33;5.00;;;;;22.44;40.22;100749.89;110250;1264;18444;-53
2022/04/03 07:36:49;;;;;;;;;5.00;5.00;;;;;22.41;40.22;100750.98;110300;1265;18816;-54
2022/04/03 07:39:16;;;;;;;;;5.00;5.00;;;;;22.41;40.61;100752.27;110178;1264;20124;-55
2022/04/03 07:41:44;;;;;;;;;6.50;6.00;;;;;22.42;40.68;100750.70;110115;1265;22259;-55
2022/04/03 07:44:11;;;;;;;;;6.00;5.33;;;;;22.41;40.39;100747.90;110144;1264;19327;-54
2022/04/03 07:46:38;;;;;;;;;5.00;5.00;;;;;22.42;40.18;100749.98;110243;1264;19684;-56
2022/04/03 07:49:05;;;;;;;;;5.67;5.33;;;;;22.42;40.33;100749.05;110076;1263;18486;-55
2022/04/03 07:51:32;;;;;;;;;5.00;5.00;;;;;22.41;40.12;100754.39;110239;1264;18669;-54
2022/04/03 07:54:00;;;;;;;;;5.00;5.00;;;;;22.35;40.30;100757.22;110225;1264;19870;-53
2022/04/03 07:56:27;;;;;;;;;3.33;3.00;;;;;22.29;40.19;100764.78;110241;1264;18508;-53
2022/04/03 07:58:54;;;;;;;;;5.00;3.00;;;;;22.24;40.18;100760.71;110252;1265;21896;-54
2022/04/03 08:01:21;;;;;;;;;5.00;3.33;;;;;22.23;40.62;100759.91;110255;1264;20119;-54
2022/04/03 08:03:49;;;;;;;;;5.00;5.00;;;;;22.27;40.78;100761.94;110141;1264;19066;-56
2022/04/03 08:06:16;;;;;;;;;5.00;5.00;;;;;22.28;40.53;100759.83;109973;1267;19009;-53
2022/04/03 08:08:43;;;;;;;;;3.33;3.00;;;;;22.38;40.42;100752.77;110146;1264;19590;-55
2022/04/03 08:11:11;;;;;;;;;6.00;5.00;;;;;22.44;40.40;100750.05;110189;1264;18633;-54
2022/04/03 08:13:38;;;;;;;;;6.00;5.00;;;;;22.44;40.16;100749.30;110197;1264;18705;-50
2022/04/03 08:16:05;;;;;;;;;6.00;5.00;;;;;22.33;39.78;100754.63;110235;1265;19476;-55
2022/04/03 08:18:33;;;;;;;;;5.00;5.00;;;;;22.22;39.73;100751.94;110108;1264;20007;-54
2022/04/03 08:21:00;;;;;;;;;4.33;4.33;;;;;22.15;39.94;100757.88;110057;1264;20687;-54
2022/04/03 08:23:27;;;;;;;;;8.00;6.50;;;;;22.13;40.03;100756.18;110315;1265;19507;-53
2022/04/03 08:25:55;;;;;;;;;5.00;5.00;;;;;22.15;39.87;100755.23;110014;1265;18545;-54
2022/04/03 08:28:22;;;;;;;;;7.00;6.00;;;;;22.16;39.71;100761.76;110180;1264;18739;-56
2022/04/03 08:30:49;;;;;;;;;6.00;3.33;;;;;22.10;39.89;100762.37;110202;1264;19598;-52
2022/04/03 08:33:16;;;;;;;;;5.33;5.33;;;;;22.07;39.65;100765.84;110192;1264;18627;-53
2022/04/03 08:35:43;;;;;;;;;6.00;5.00;;;;;22.03;39.97;100769.71;110129;1264;19040;-55
2022/04/03 08:38:11;;;;;;;;;3.00;3.00;;;;;22.03;40.11;100767.20;110164;1265;19505;-56
2022/04/03 08:40:38;;;;;;;;;3.00;3.00;;;;;21.99;40.59;100764.19;110156;1264;22724;-56
2022/04/03 08:43:05;;;;;;;;;3.00;3.00;;;;;21.98;40.76;100767.52;110052;1264;22954;-54
2022/04/03 08:45:32;;;;;;;;;3.33;3.00;;;;;21.97;40.51;100762.86;110062;1264;19519;-52
2022/04/03 08:48:00;;;;;;;;;3.00;3.00;;;;;21.96;40.27;100766.04;110075;1264;22809;-53
2022/04/03 08:50:27;;;;;;;;;5.67;5.00;;;;;21.97;40.15;100765.91;110132;1264;18858;-56
2022/04/03 08:52:54;;;;;;;;;5.50;3.00;;;;;21.98;39.98;100769.28;110066;1265;19749;-54
2022/04/03 08:55:21;;;;;;;;;3.00;3.00;;;;;21.99;40.05;100767.02;110013;1264;18517;-55
2022/04/03 08:57:48;;;;;;;;;5.00;5.00;;;;;21.97;40.05;100765.20;110121;1264;20949;-56
2022/04/03 09:00:16;;;;;;;;;4.67;4.67;;;;;21.94;39.88;100761.41;110279;1265;19609;-53
2022/04/03 09:02:45;;;;;;;;;5.33;4.67;;;;;21.95;39.95;100764.58;110293;1264;18427;-52
2022/04/03 09:05:12;;;;;;;;;7.00;6.00;;;;;21.90;39.66;100768.02;110232;1264;18818;-57
2022/04/03 09:07:39;;;;;;;;;4.00;4.00;;;;;21.88;39.61;100769.38;110155;1264;19772;-55
2022/04/03 09:10:06;;;;;;;;;5.00;3.00;;;;;21.89;39.78;100770.02;110173;1264;18992;-55
2022/04/03 09:12:34;;;;;;;;;5.00;5.00;;;;;21.90;39.72;100765.68;110192;1265;23293;-55
2022/04/03 09:15:01;;;;;;;;;6.00;5.00;;;;;21.92;39.82;100770.90;110087;1264;19648;-52
2022/04/03 09:17:28;;;;;;;;;7.00;5.00;;;;;21.92;40.07;100773.33;110020;1265;18769;-54
2022/04/03 09:19:55;;;;;;;;;10.00;10.00;;;;;21.87;39.10;100780.98;110069;1264;19252;-50
2022/04/03 09:22:23;;;;;;;;;9.67;9.00;;;;;21.56;34.48;100776.14;110013;1264;19524;-52
2022/04/03 09:24:50;;;;;;;;;9.00;9.00;;;;;21.11;32.94;100775.73;110255;1265;22197;-51
2022/04/03 09:27:17;;;;;;;;;9.00;9.00;;;;;21.11;33.71;100778.45;110210;1264;20272;-47
2022/04/03 09:29:44;;;;;;;;;8.67;8.67;;;;;21.26;33.85;100778.21;110246;1264;23033;-56
2022/04/03 09:32:12;;;;;;;;;7.00;6.00;;;;;21.43;34.27;100773.16;110219;1263;18632;-52
2022/04/03 09:34:40;;;;;;;;;8.33;8.33;;;;;21.53;34.81;100771.59;110132;1264;18871;-54
2022/04/03 09:37:07;;;;;;;;;10.00;7.00;;;;;21.64;35.15;100772.80;110083;1264;19771;-53
2022/04/03 09:39:34;;;;;;;;;8.67;8.00;;;;;21.74;35.16;100764.41;110234;1264;18500;-54
2022/04/03 09:42:02;;;;;;;;;9.50;9.00;;;;;21.80;35.54;100757.48;110244;1264;19148;-53
2022/04/03 09:44:29;;;;;;;;;8.33;8.33;;;;;21.86;35.80;100752.16;110304;1264;19685;-56
2022/04/03 09:46:56;;;;;;;;;9.00;8.00;;;;;21.93;35.78;100753.95;110224;1264;18509;-52
2022/04/03 09:49:24;;;;;;;;;9.00;9.00;;;;;21.97;36.39;100754.24;110147;1264;22084;-53
2022/04/03 09:51:51;;;;;;;;;7.00;7.00;;;;;22.04;37.19;100752.95;110155;1264;19498;-54
2022/04/03 09:54:18;;;;;;;;;9.00;7.33;;;;;22.09;37.57;100755.42;110183;1263;18542;-51
2022/04/03 09:56:45;;;;;;;;;10.00;9.00;;;;;22.09;37.86;100756.65;110233;1265;18829;-53
2022/04/03 09:59:13;;;;;;;;;7.00;7.00;;;;;22.10;37.91;100759.13;110251;1264;20949;-47
2022/04/03 10:01:40;;;;;;;;;6.00;6.00;;;;;22.11;38.19;100760.84;110101;1265;18756;-55
2022/04/03 10:04:07;;;;;;;;;7.00;7.00;;;;;22.13;38.96;100758.98;110248;1264;19065;-53
2022/04/03 10:06:35;;;;;;;;;9.50;9.00;;;;;22.19;39.65;100761.34;110165;1265;22157;-53
2022/04/03 10:09:02;;;;;;;;;6.00;6.00;;;;;22.23;40.34;100753.22;110223;1264;18533;-52
2022/04/03 10:11:30;;;;;;;;;8.00;8.00;;;;;22.25;40.56;100751.63;110297;1265;18739;-56
2022/04/03 10:13:57;;;;;;;;;6.00;6.00;;;;;22.25;40.77;100745.85;110110;1264;19647;-56
2022/04/03 10:16:24;;;;;;;;;11.00;9.00;;;;;22.23;41.07;100743.63;110148;1264;18391;-52
2022/04/03 10:18:51;;;;;;;;;7.00;5.67;;;;;22.25;40.80;100737.38;110150;1264;18800;-53
2022/04/03 10:21:19;;;;;;;;;7.00;6.33;;;;;22.24;41.09;100743.87;110200;1264;22245;-53
2022/04/03 10:23:46;;;;;;;;;5.00;5.00;;;;;22.21;40.78;100740.58;110209;1263;18636;-57
2022/04/03 10:26:14;;;;;;;;;9.00;6.00;;;;;22.18;40.68;100736.92;110202;1264;19943;-53
2022/04/03 10:28:41;;;;;;;;;6.00;6.00;;;;;22.16;40.34;100734.72;110203;1264;19727;-54
2022/04/03 10:31:08;;;;;;;;;6.00;6.00;;;;;22.16;40.22;100728.79;110230;1264;18608;-55
2022/04/03 10:33:35;;;;;;;;;7.00;6.00;;;;;22.17;39.98;100729.16;110188;1264;23269;-56
2022/04/03 10:36:03;;;;;;;;;6.33;6.00;;;;;22.19;40.13;100720.98;110228;1264;21042;-53
2022/04/03 10:38:30;;;;;;;;;7.00;6.00;;;;;22.20;39.91;100727.39;110244;1264;20280;-55
2022/04/03 10:40:57;;;;;;;;;6.00;5.00;;;;;22.18;39.93;100729.97;110227;1263;27105;-54
2022/04/03 10:43:24;;;;;;;;;8.00;6.33;;;;;22.20;39.78;100732.46;110209;1264;19474;-52
2022/04/03 10:45:52;;;;;;;;;9.33;6.00;;;;;22.16;39.83;100732.98;110178;1264;22239;-53
2022/04/03 10:48:19;;;;;;;;;8.00;8.00;;;;;22.11;39.86;100727.74;110264;1264;18777;-54
2022/04/03 10:50:46;;;;;;;;;7.00;7.00;;;;;22.12;39.83;100729.00;110296;1265;19435;-56
2022/04/03 10:53:13;;;;;;;;;3.67;3.67;;;;;22.11;40.25;100728.76;110219;1265;18456;-53
2022/04/03 10:55:41;;;;;;;;;6.00;6.00;;;;;22.08;40.40;100722.90;110208;1264;18752;-52
2022/04/03 10:58:08;;;;;;;;;6.00;5.67;;;;;22.10;40.37;100722.17;110244;1264;19500;-54
2022/04/03 11:00:35;;;;;;;;;6.00;5.67;;;;;22.15;40.41;100721.64;110218;1264;18447;-54
2022/04/03 11:03:03;;;;;;;;;3.00;3.00;;;;;22.15;40.55;100714.46;110242;1265;19508;-53
2022/04/03 11:05:30;;;;;;;;;5.00;5.00;;;;;22.10;40.31;100715.77;110186;1266;19495;-53
2022/04/03 11:07:57;;;;;;;;;6.00;6.00;;;;;22.10;40.20;100719.75;110236;1264;31592;-53
2022/04/03 11:10:24;;;;;;;;;6.33;6.33;;;;;22.08;40.42;100712.73;110211;1264;18890;-51
2022/04/03 11:12:52;;;;;;;;;4.67;4.67;;;;;22.05;40.37;100713.48;110240;1265;20978;-51
2022/04/03 11:15:19;;;;;;;;;7.00;6.00;;;;;22.05;40.02;100709.33;110178;1265;21100;-55
2022/04/03 11:17:46;;;;;;;;;6.00;6.00;;;;;22.07;40.00;100706.73;110104;1264;18765;-52
2022/04/03 11:20:13;;;;;;;;;8.00;6.50;;;;;22.12;39.94;100715.34;110034;1263;19800;-53
2022/04/03 11:22:40;;;;;;;;;5.33;5.00;;;;;22.16;40.27;100710.06;110008;1264;18458;-55
2022/04/03 11:25:08;;;;;;;;;9.33;8.00;;;;;22.14;40.44;100708.02;109969;1264;19069;-54
2022/04/03 11:27:35;;;;;;;;;6.33;5.33;;;;;22.13;40.27;100702.84;110036;1265;19509;-54
2022/04/03 11:30:02;;;;;;;;;6.00;6.00;;;;;22.17;40.45;100701.55;110043;1264;18837;-50
2022/04/03 11:32:29;;;;;;;;;7.00;6.00;;;;;22.20;40.33;100695.77;110257;1264;20690;-55
2022/04/03 11:34:56;;;;;;;;;5.00;5.00;;;;;22.22;40.37;100695.63;110260;1264;20610;-53
2022/04/03 11:37:24;;;;;;;;;8.00;5.00;;;;;22.22;40.07;100694.95;110259;1264;18471;-53
2022/04/03 11:39:53;;;;;;;;;6.00;5.33;;;;;22.16;40.60;100693.10;110189;1265;20333;-52
2022/04/03 11:42:20;;;;;;;;;9.00;6.33;;;;;22.13;40.34;100693.27;110126;1265;19600;-51
2022/04/03 11:44:47;;;;;;;;;5.33;5.33;;;;;22.13;40.19;100689.95;110184;1265;18654;-53
2022/04/03 11:47:15;;;;;;;;;5.00;5.00;;;;;22.13;39.94;100684.91;110219;1264;19435;-52
2022/04/03 11:49:42;;;;;;;;;6.00;6.00;;;;;22.09;40.25;100682.39;110201;1264;19559;-55
2022/04/03 11:52:09;;;;;;;;;6.00;5.00;;;;;22.08;40.04;100679.39;110136;1264;18466;-51
2022/04/03 11:54:36;;;;;;;;;6.33;6.00;;;;;22.07;40.32;100676.95;110156;1264;19163;-54
2022/04/03 11:57:03;;;;;;;;;9.67;7.00;;;;;22.09;40.06;100677.82;110215;1265;19676;-53
2022/04/03 11:59:31;;;;;;;;;5.67;5.67;;;;;22.10;40.08;100672.05;110273;1265;18390;-53
2022/04/03 12:01:58;;;;;;;;;6.00;5.00;;;;;22.11;39.99;100667.96;110197;1264;18933;-55
2022/04/03 12:04:26;;;;;;;;;6.00;6.00;;;;;22.17;40.14;100666.60;110226;1264;19594;-52
2022/04/03 12:06:53;;;;;;;;;6.00;6.00;;;;;22.21;39.94;100663.73;110224;1264;18449;-55
2022/04/03 12:09:21;;;;;;;;;6.00;5.67;;;;;22.23;39.91;100661.79;110180;1265;18819;-56
2022/04/03 12:11:51;;;;;;;;;6.00;6.00;;;;;22.25;39.73;100664.34;110218;1264;22946;-56
2022/04/03 12:14:18;;;;;;;;;6.33;5.33;;;;;22.24;39.86;100657.10;110199;1264;20527;-55
2022/04/03 12:16:45;;;;;;;;;5.00;5.00;;;;;22.25;39.74;100658.80;110122;1264;18744;-55
2022/04/03 12:19:15;;;;;;;;;8.33;6.00;;;;;22.32;40.97;100664.16;110257;1264;19972;-53
2022/04/03 12:21:42;;;;;;;;;3.00;3.00;;;;;22.54;43.06;100659.39;110233;1263;18293;-53
2022/04/03 12:24:09;;;;;;;;;5.00;5.00;;;;;22.64;42.21;100656.02;110135;1265;18904;-56
2022/04/03 12:26:36;;;;;;;;;5.33;5.33;;;;;22.62;42.00;100660.23;110104;1267;22268;-51
2022/04/03 12:29:04;;;;;;;;;6.00;6.00;;;;;22.57;42.06;100657.61;110151;1264;19296;-54
2022/04/03 12:31:31;;;;;;;;;5.00;5.00;;;;;22.52;41.95;100657.73;110121;1267;19105;-54
2022/04/03 12:33:58;;;;;;;;;6.00;5.67;;;;;22.42;42.03;100654.02;110228;1265;19653;-54
2022/04/03 12:36:26;;;;;;;;;6.00;6.00;;;;;22.35;41.67;100655.58;110248;1264;19900;-56
2022/04/03 12:38:53;;;;;;;;;5.33;5.33;;;;;22.35;41.75;100651.58;110129;1265;18781;-53
2022/04/03 12:41:20;;;;;;;;;5.00;5.00;;;;;22.34;41.78;100649.30;110245;1264;19542;-53
2022/04/03 12:43:47;;;;;;;;;6.00;5.00;;;;;22.30;41.80;100641.13;110064;1267;18522;-52
2022/04/03 12:46:15;;;;;;;;;6.00;5.00;;;;;22.27;41.76;100643.56;110139;1264;19135;-52
2022/04/03 12:48:42;;;;;;;;;5.50;5.50;;;;;22.28;41.36;100642.11;109959;1265;19490;-55
2022/04/03 12:51:09;;;;;;;;;6.33;6.00;;;;;22.24;40.54;100636.56;110171;1264;18321;-55
2022/04/03 12:53:37;;;;;;;;;6.00;6.00;;;;;22.10;38.97;100637.73;110249;1264;19612;-57
2022/04/03 12:56:04;;;;;;;;;8.67;6.67;;;;;22.08;39.20;100633.27;110230;1265;19772;-55
2022/04/03 12:58:34;;;;;;;;;6.00;5.67;;;;;22.10;39.06;100629.71;110050;1265;22402;-55
2022/04/03 13:01:06;;;;;;;;;5.50;5.50;;;;;22.12;39.38;100627.69;110185;1265;18915;-53
2022/04/03 13:03:34;;;;;;;;;9.00;6.50;;;;;22.13;39.45;100625.39;110203;1265;21411;-53
2022/04/03 13:06:01;;;;;;;;;7.00;6.00;;;;;22.14;39.58;100624.02;110208;1264;22352;-54
2022/04/03 13:08:28;;;;;;;;;9.00;7.33;;;;;22.13;39.92;100621.89;110252;1265;18861;-56
2022/04/03 13:10:55;;;;;;;;;7.67;6.67;;;;;22.13;39.95;100619.52;110062;1264;19552;-56
2022/04/03 13:13:23;;;;;;;;;10.00;8.67;;;;;22.15;40.02;100615.67;110172;1264;18495;-54
2022/04/03 13:15:50;;;;;;;;;8.33;7.00;;;;;22.13;39.76;100616.26;110193;1264;18865;-57
2022/04/03 13:18:17;;;;;;;;;9.00;6.00;;;;;22.16;39.83;100618.46;110218;1265;19502;-52
2022/04/03 13:20:45;;;;;;;;;9.00;7.00;;;;;22.24;41.20;100610.68;110247;1264;19041;-58
2022/04/03 13:23:12;;;;;;;;;6.00;6.00;;;;;22.34;41.42;100609.05;110246;1264;20450;-55
2022/04/03 13:25:39;;;;;;;;;7.00;6.00;;;;;22.42;41.76;100607.60;110208;1264;23120;-52
2022/04/03 13:28:06;;;;;;;;;9.33;9.00;;;;;22.46;41.66;100604.73;110188;1264;18667;-54
2022/04/03 13:30:34;;;;;;;;;9.00;9.00;;;;;22.47;41.78;100603.02;110207;1264;19039;-52
2022/04/03 13:33:01;;;;;;;;;6.33;6.00;;;;;22.46;41.98;100598.02;110134;1264;19621;-54
2022/04/03 13:35:28;;;;;;;;;7.67;5.00;;;;;22.50;42.26;100594.74;110249;1264;18791;-54
2022/04/03 13:37:55;;;;;;;;;6.00;6.00;;;;;22.56;42.31;100593.52;110260;1264;19610;-54
2022/04/03 13:40:23;;;;;;;;;10.67;10.00;;;;;22.59;42.18;100593.93;110255;1264;19396;-57
2022/04/03 13:42:50;;;;;;;;;7.00;6.00;;;;;22.62;42.10;100593.96;110224;1265;18452;-53
2022/04/03 13:45:17;;;;;;;;;6.00;6.00;;;;;22.61;42.11;100594.63;110219;1265;18786;-54
2022/04/03 13:47:44;;;;;;;;;10.33;7.00;;;;;22.56;42.05;100596.58;110180;1264;19873;-53
2022/04/03 13:50:11;;;;;;;;;5.67;5.67;;;;;22.54;42.08;100597.29;109974;1265;18406;-56
2022/04/03 13:52:39;;;;;;;;;6.00;6.00;;;;;22.52;42.25;100591.07;110200;1264;18756;-54
2022/04/03 13:55:06;;;;;;;;;7.00;7.00;;;;;22.54;42.51;100595.18;110230;1264;19955;-54
2022/04/03 13:57:34;;;;;;;;;6.67;5.67;;;;;22.56;42.97;100591.84;110226;1264;18428;-56
2022/04/03 14:00:01;;;;;;;;;13.67;7.00;;;;;22.57;42.87;100586.55;110256;1264;18979;-53
2022/04/03 14:02:28;;;;;;;;;7.00;6.00;;;;;22.59;43.01;100588.71;110209;1265;19711;-55
2022/04/03 14:04:55;;;;;;;;;6.67;6.00;;;;;22.59;42.95;100586.09;110103;1267;19103;-52
2022/04/03 14:07:23;;;;;;;;;10.33;9.67;;;;;22.59;42.63;100594.17;110134;1264;19779;-57
2022/04/03 14:09:50;;;;;;;;;6.00;5.00;;;;;22.61;42.71;100593.45;110253;1264;19699;-51
2022/04/03 14:12:17;;;;;;;;;5.50;5.50;;;;;22.69;42.79;100594.50;110188;1265;23035;-53
2022/04/03 14:14:44;;;;;;;;;9.00;6.00;;;;;22.65;42.66;100590.25;110276;1264;18966;-56
2022/04/03 14:17:11;;;;;;;;;6.67;5.00;;;;;22.59;42.54;100583.17;110186;1265;20664;-58
2022/04/03 14:19:39;;;;;;;;;5.67;5.00;;;;;22.56;42.38;100585.54;110209;1264;22679;-53
2022/04/03 14:22:07;;;;;;;;;5.00;3.00;;;;;22.55;42.38;100579.86;110150;1264;18793;-54
2022/04/03 14:24:36;;;;;;;;;5.67;5.67;;;;;22.56;42.51;100576.16;110237;1264;19903;-55
2022/04/03 14:27:03;;;;;;;;;9.00;6.00;;;;;22.55;42.22;100576.23;110237;1264;18503;-53
2022/04/03 14:29:30;;;;;;;;;7.00;7.00;;;;;22.53;42.26;100578.02;110282;1264;18905;-53
2022/04/03 14:31:57;;;;;;;;;5.33;3.00;;;;;22.56;42.52;100578.85;110024;1264;19618;-52
2022/04/03 14:34:25;;;;;;;;;7.00;6.00;;;;;22.57;42.48;100576.52;110233;1265;18440;-53
2022/04/03 14:36:52;;;;;;;;;7.00;7.00;;;;;22.59;42.36;100576.28;110235;1264;22270;-55
2022/04/03 14:39:19;;;;;;;;;9.00;7.00;;;;;22.62;42.22;100574.09;110165;1264;19539;-54
2022/04/03 14:41:47;;;;;;;;;3.67;3.67;;;;;22.60;42.24;100576.17;110196;1264;18542;-54
2022/04/03 14:44:14;;;;;;;;;5.00;5.00;;;;;22.54;42.20;100574.75;109915;1265;20257;-51
2022/04/03 14:46:41;;;;;;;;;7.00;5.33;;;;;22.48;42.11;100578.46;110239;1264;19821;-53
2022/04/03 14:49:08;;;;;;;;;6.50;6.00;;;;;22.41;42.23;100583.70;110199;1265;18397;-53
2022/04/03 14:51:37;;;;;;;;;5.00;5.00;;;;;22.36;42.41;100581.90;110165;1265;19189;-52
2022/04/03 14:54:04;;;;;;;;;6.00;5.67;;;;;22.33;42.50;100575.71;110214;1265;19427;-54
2022/04/03 14:56:31;;;;;;;;;6.00;5.33;;;;;22.32;42.27;100575.75;110200;1264;19131;-53
2022/04/03 14:59:02;;;;;;;;;6.00;6.00;;;;;22.30;42.24;100583.11;110047;1265;19219;-53
2022/04/03 15:01:29;;;;;;;;;9.00;7.00;;;;;22.29;42.03;100583.77;110205;1265;19815;-51
2022/04/03 15:03:57;;;;;;;;;5.00;5.00;;;;;22.28;41.86;100582.01;110198;1265;22688;-52
2022/04/03 15:06:24;;;;;;;;;5.50;5.50;;;;;22.31;41.82;100587.00;110167;1264;19010;-51
2022/04/03 15:08:54;;;;;;;;;5.00;5.00;;;;;22.32;41.81;100584.41;110228;1264;20195;-53
2022/04/03 15:11:21;;;;;;;;;4.33;4.33;;;;;22.31;42.11;100583.42;110261;1265;18431;-53
2022/04/03 15:13:48;;;;;;;;;6.00;6.00;;;;;22.30;42.22;100583.04;110216;1264;18716;-53
2022/04/03 15:16:15;;;;;;;;;5.50;5.00;;;;;22.29;42.21;100587.39;110219;1265;22280;-55
2022/04/03 15:18:45;;;;;;;;;5.00;5.00;;;;;22.28;42.09;100585.15;110198;1264;18480;-54
2022/04/03 15:21:13;;;;;;;;;4.33;4.33;;;;;22.27;42.04;100587.45;110262;1264;18580;-54
2022/04/03 15:23:40;;;;;;;;;6.00;6.00;;;;;22.28;41.76;100581.84;110238;1265;19552;-51
2022/04/03 15:26:08;;;;;;;;;5.67;5.00;;;;;22.28;41.71;100583.09;110063;1265;24195;-50
2022/04/03 15:28:35;;;;;;;;;6.33;6.00;;;;;22.28;42.04;100583.16;109962;1264;18988;-53
2022/04/03 15:31:03;;;;;;;;;5.00;5.00;;;;;22.26;41.95;100585.67;110014;1265;19542;-52
2022/04/03 15:33:30;;;;;;;;;5.00;5.00;;;;;22.26;41.84;100585.04;110015;1264;18537;-52
2022/04/03 15:35:57;;;;;;;;;6.00;6.00;;;;;22.25;41.92;100583.48;110082;1264;19668;-54
2022/04/03 15:38:25;;;;;;;;;4.33;4.33;;;;;22.26;42.02;100587.56;110077;1264;19592;-55
2022/04/03 15:40:53;;;;;;;;;7.67;6.00;;;;;22.44;42.11;100585.23;110055;1265;18473;-54
2022/04/03 15:43:20;;;;;;;;;6.00;5.00;;;;;22.94;41.34;100583.19;110184;1263;19263;-55
2022/04/03 15:45:47;;;;;;;;;4.33;3.00;;;;;23.28;40.85;100585.44;110240;1264;19768;-51
2022/04/03 15:48:14;;;;;;;;;5.67;5.00;;;;;23.55;40.45;100581.97;110228;1264;18966;-52
2022/04/03 15:50:42;;;;;;;;;6.00;6.00;;;;;23.92;40.13;100583.70;110255;1264;22765;-53
2022/04/03 15:53:09;;;;;;;;;6.00;5.00;;;;;24.02;39.88;100582.72;110260;1264;22431;-52
2022/04/03 15:55:36;;;;;;;;;5.67;5.67;;;;;23.71;40.25;100587.52;110244;1264;18442;-54
2022/04/03 15:58:03;;;;;;;;;5.67;5.67;;;;;23.39;40.62;100592.15;110236;1264;21555;-52
2022/04/03 16:00:30;;;;;;;;;5.67;5.67;;;;;23.02;41.05;100586.94;110079;1265;19506;-54
2022/04/03 16:02:58;;;;;;;;;9.00;9.00;;;;;22.73;41.59;100589.71;110142;1265;19939;-57
2022/04/03 16:05:25;;;;;;;;;6.00;6.00;;;;;22.56;42.22;100586.10;110081;1265;18858;-56
2022/04/03 16:07:52;;;;;;;;;7.00;6.00;;;;;22.49;42.55;100586.50;110182;1264;19472;-56
2022/04/03 16:10:30;;;;;;;;;5.00;5.00;;;;;22.43;42.54;100592.11;110233;1265;18471;-54
2022/04/03 16:12:57;;;;;;;;;7.00;7.00;;;;;22.37;42.68;100588.92;110201;1265;18837;-53
2022/04/03 16:15:26;;;;;;;;;5.50;5.00;;;;;22.29;42.49;100593.02;110179;1265;19710;-54
2022/04/03 16:17:53;;;;;;;;;6.33;6.33;;;;;22.26;42.49;100592.52;110262;1264;18519;-56
2022/04/03 16:20:20;;;;;;;;;5.33;5.00;;;;;22.21;42.52;100595.10;110206;1264;18885;-56
2022/04/03 16:22:47;;;;;;;;;7.67;6.33;;;;;22.19;42.65;100591.96;110214;1264;19777;-54
2022/04/03 16:25:14;;;;;;;;;5.33;5.33;;;;;22.17;42.55;100593.95;110207;1264;18539;-56
2022/04/03 16:27:42;;;;;;;;;6.00;5.33;;;;;22.18;42.63;100596.98;110117;1264;20381;-53
2022/04/03 16:30:10;;;;;;;;;5.67;5.67;;;;;22.20;42.82;100593.37;110163;1264;19519;-52
2022/04/03 16:32:38;;;;;;;;;5.00;3.67;;;;;22.23;42.60;100597.94;110154;1265;19991;-55
2022/04/03 16:35:05;;;;;;;;;6.00;5.33;;;;;22.20;42.52;100596.89;110249;1264;22342;-53
2022/04/03 16:37:33;;;;;;;;;5.67;5.00;;;;;22.16;42.39;100595.23;110254;1264;19468;-56
2022/04/03 16:40:01;;;;;;;;;6.00;5.67;;;;;22.09;42.40;100598.75;110193;1265;18907;-54
2022/04/03 16:42:28;;;;;;;;;3.00;3.00;;;;;22.06;42.41;100601.08;110272;1264;22932;-54
2022/04/03 16:44:55;;;;;;;;;5.33;5.00;;;;;22.05;42.19;100600.85;110156;1264;19527;-52
2022/04/03 16:47:22;;;;;;;;;3.00;3.00;;;;;22.02;42.13;100597.80;110179;1264;19024;-51
2022/04/03 16:49:50;;;;;;;;;6.00;5.33;;;;;22.02;42.17;100601.78;110047;1266;19367;-54
2022/04/03 16:52:17;;;;;;;;;3.67;3.67;;;;;22.06;42.65;100602.59;110180;1264;19501;-58
2022/04/03 16:54:44;;;;;;;;;6.00;6.00;;;;;22.09;42.56;100604.52;110113;1264;18977;-52
2022/04/03 16:57:12;;;;;;;;;6.00;5.00;;;;;22.10;42.87;100600.06;110247;1264;18653;-53
2022/04/03 16:59:40;;;;;;;;;5.00;3.00;;;;;22.10;42.85;100606.08;110284;1264;19800;-54
2022/04/03 17:02:07;;;;;;;;;5.33;5.00;;;;;22.06;42.89;100602.34;110238;1264;19394;-54
2022/04/03 17:04:34;;;;;;;;;4.33;4.33;;;;;22.05;42.73;100605.27;110160;1264;18728;-56
2022/04/03 17:07:01;;;;;;;;;5.67;5.00;;;;;22.06;42.41;100603.85;110231;1264;22230;-50
2022/04/03 17:09:28;;;;;;;;;5.33;5.00;;;;;22.06;42.58;100606.55;110235;1264;18636;-50
2022/04/03 17:11:57;;;;;;;;;6.00;6.00;;;;;22.04;42.59;100611.55;110124;1265;18870;-50
2022/04/03 17:14:24;;;;;;;;;5.33;5.00;;;;;22.00;42.45;100609.78;110070;1264;19836;-54
2022/04/03 17:16:51;;;;;;;;;6.00;5.00;;;;;22.01;42.30;100615.61;110025;1264;19359;-56
2022/04/03 17:19:18;;;;;;;;;3.67;3.67;;;;;22.00;42.36;100611.66;110022;1264;23504;-54
2022/04/03 17:21:46;;;;;;;;;4.33;4.33;;;;;22.00;42.35;100614.74;110005;1265;22668;-56
2022/04/03 17:24:13;;;;;;;;;5.50;5.50;;;;;21.98;42.33;100613.89;110057;1264;18399;-55
2022/04/03 17:26:40;;;;;;;;;3.00;3.00;;;;;21.97;42.26;100615.86;110123;1263;21152;-52
2022/04/03 17:29:07;;;;;;;;;5.33;3.33;;;;;21.95;42.17;100616.42;110031;1264;19961;-52
2022/04/03 17:31:35;;;;;;;;;4.50;4.50;;;;;21.93;42.16;100612.52;110124;1264;18945;-52
2022/04/03 17:34:03;;;;;;;;;3.00;3.00;;;;;21.95;41.99;100621.08;110237;1264;18722;-54
2022/04/03 17:36:30;;;;;;;;;3.00;3.00;;;;;21.95;42.07;100622.16;110214;1264;22123;-55
2022/04/03 17:38:59;;;;;;;;;6.00;5.50;;;;;21.97;41.87;100623.67;110288;1264;18422;-52